Kennedy Space Center, Florida
Current Conditions -  °F | °C
As of 3:58 PM on Tuesday 25 Nov 2014 (Local Time) from KTTS Reporting Station
Drizzle Drizzle  
Wind Chill: 76°   Ceiling: Unl
Heat Index: 76°   Visibility: 10mi
Dew Point: 73°   Wind: 5mph
Humidity: 90%   Direction: 180°S
Pressure: 29.89"   Gusts: NA
Location:  28.62°N, 80.68°W
Report Text: KTTS 252058Z AUTO 18004KT 10SM -DZ SCT050 25/23 A2989 RMK AO2 DZB2054 SLP125 P0000 60000 T02450227 56016 VISNO RWY33 CHINO RWY33 $
Loading
Personal Weather Stations






























Interactive Weather Map New forecast layout! Learn more

10-Day Weather Forecast

Advertisements
Track Severe Weather on mobile